Terminal Aerodrome Forecast
Issued by NWS

Home | Current Version | Previous Version | Text Only | Print | Product List | Glossary On
Versions: 1 2 3 4 5 6 7 8 9
498
FTUS46 KPDT 232341
TAFDLS
TAF
KDLS 232341Z 2400/2424 32013G23KT P6SM BKN070 OVC100
     FM240300 32012KT P6SM VCSH BKN050 OVC100
     FM240600 31010KT P6SM -SHRA BKN040 OVC050
     FM241000 VRB03KT P6SM -SHRA OVC035
     FM241900 34010KT P6SM SCT045 BKN060=

USA.gov is the U.S. government's official web portal to all federal, state and local government web resources and services.